Terminal Aerodrome Forecast
Issued by NWS Sterling, VA

Current Version | Previous Version | Graphics & Text | Print | Product List | Glossary On
Versions: 1 2 3 4 5 6 7 8 9 10 11 12 13 14
000
FTUS41 KLWX 201100
TAFMRB
TAF
KMRB 201137Z 2012/2112 VRB03KT P6SM FEW050
     FM201500 18006KT P6SM SCT050
     FM201700 18008KT P6SM FEW250
     FM210000 16004KT P6SM SCT250
     FM210300 00000KT P6SM SCT250=

USA.gov is the U.S. government's official web portal to all federal, state and local government web resources and services.